ROMMA est une association bénévole à but non lucratif. Votre soutien est indispensable : ADHERER à ROMMA ou FAIRE un DON

La Beaume - (05, Hautes Alpes)

Buëch (820 m)   Longitude: 5° 40' 9'' E   Latitude: 44° 32' 3'' N Station partenaire n°75
 

Détail journalier du     <<     >>

Température Precipitation Humidité Pression Vent Dir Rafale Dir. rafale Ensol.
Heure (°C) (mm) (%) (hPa) (km/h) (km/h) (min)
01:00 12.50.29310093S13SSO0
02:00 12.209410092S10NO0
03:00 11.309410082OSO8SO0
04:00 11.909410075S23ONO0
05:00 12.5086100711O23ONO0
06:00 12.408410069ONO21O0
07:00 12.1083100610ONO19ONO0
08:00 12.208110068ONO19O0
09:00 13.307510078NO19ONO30
10:00 14.40.269100713ONO27ONO60
11:00 14.9067100716ONO39O60
12:00 15.3066100718O35O0
13:00 14.2071100816ONO32O0
14:00 14.8069100815N37N0
15:00 15.6061100820N39NNE30
16:00 15.6063100819N50E30
17:00 14.8063100919N40NNO30
18:00 14.5065100920N56O0
19:00 13.6069101019N39NO0
20:00 13.4069101116N37N0
21:00 12.8075101113N35NNO0
22:00 11.90.279101211NO29N0
23:00 11.8072101312N31NE0
minuit 11.2065101417NNE48E0

Graphique du 02-10-2019

 

Serveur OMMA